sensor_id;sensor_type;location;lat;lon;timestamp;P1;durP1;ratioP1;P2;durP2;ratioP2
42000;SDS011;27689;48.390;10.856;2022-08-19T00:01:33;5.07;;;4.57;;
42000;SDS011;27689;48.390;10.856;2022-08-19T00:04:19;5.00;;;4.50;;
42000;SDS011;27689;48.390;10.856;2022-08-19T00:07:05;5.68;;;5.05;;
42000;SDS011;27689;48.390;10.856;2022-08-19T00:09:50;5.40;;;4.90;;
42000;SDS011;27689;48.390;10.856;2022-08-19T00:12:34;4.55;;;4.15;;
42000;SDS011;27689;48.390;10.856;2022-08-19T00:15:19;4.03;;;3.60;;
42000;SDS011;27689;48.390;10.856;2022-08-19T00:18:05;4.45;;;3.25;;
42000;SDS011;27689;48.390;10.856;2022-08-19T00:20:49;2.97;;;2.67;;
42000;SDS011;27689;48.390;10.856;2022-08-19T00:23:33;5.55;;;3.05;;
42000;SDS011;27689;48.390;10.856;2022-08-19T00:26:18;3.90;;;2.70;;
42000;SDS011;27689;48.390;10.856;2022-08-19T00:29:03;2.90;;;2.70;;
42000;SDS011;27689;48.390;10.856;2022-08-19T00:31:50;2.53;;;2.30;;
42000;SDS011;27689;48.390;10.856;2022-08-19T00:34:38;2.72;;;2.05;;
42000;SDS011;27689;48.390;10.856;2022-08-19T00:37:22;3.72;;;2.47;;
42000;SDS011;27689;48.390;10.856;2022-08-19T00:40:10;2.15;;;1.83;;
42000;SDS011;27689;48.390;10.856;2022-08-19T00:42:55;2.25;;;1.70;;
42000;SDS011;27689;48.390;10.856;2022-08-19T00:45:39;3.22;;;1.48;;
42000;SDS011;27689;48.390;10.856;2022-08-19T00:48:25;1.83;;;1.42;;
42000;SDS011;27689;48.390;10.856;2022-08-19T00:51:09;2.33;;;1.52;;
42000;SDS011;27689;48.390;10.856;2022-08-19T00:53:54;3.03;;;1.73;;
42000;SDS011;27689;48.390;10.856;2022-08-19T00:56:40;3.33;;;1.40;;
42000;SDS011;27689;48.390;10.856;2022-08-19T00:59:25;2.60;;;1.65;;
42000;SDS011;27689;48.390;10.856;2022-08-19T01:02:08;1.45;;;1.10;;
42000;SDS011;27689;48.390;10.856;2022-08-19T01:04:53;2.17;;;2.00;;
42000;SDS011;27689;48.390;10.856;2022-08-19T01:07:37;3.35;;;2.33;;
42000;SDS011;27689;48.390;10.856;2022-08-19T01:10:24;3.22;;;2.70;;
42000;SDS011;27689;48.390;10.856;2022-08-19T01:13:10;3.30;;;3.00;;
42000;SDS011;27689;48.390;10.856;2022-08-19T01:15:58;5.18;;;3.38;;
42000;SDS011;27689;48.390;10.856;2022-08-19T01:18:46;4.28;;;3.70;;
42000;SDS011;27689;48.390;10.856;2022-08-19T01:21:37;4.35;;;3.85;;
42000;SDS011;27689;48.390;10.856;2022-08-19T01:24:27;5.03;;;3.70;;
42000;SDS011;27689;48.390;10.856;2022-08-19T01:27:11;4.88;;;3.83;;
42000;SDS011;27689;48.390;10.856;2022-08-19T01:29:55;4.22;;;3.60;;
42000;SDS011;27689;48.390;10.856;2022-08-19T01:32:39;6.13;;;4.22;;
42000;SDS011;27689;48.390;10.856;2022-08-19T01:35:24;5.20;;;4.70;;
42000;SDS011;27689;48.390;10.856;2022-08-19T01:38:18;5.30;;;4.80;;
42000;SDS011;27689;48.390;10.856;2022-08-19T01:41:04;4.30;;;3.67;;
42000;SDS011;27689;48.390;10.856;2022-08-19T01:43:50;5.57;;;5.03;;
42000;SDS011;27689;48.390;10.856;2022-08-19T01:46:36;4.93;;;4.47;;
42000;SDS011;27689;48.390;10.856;2022-08-19T01:49:22;6.05;;;5.45;;
42000;SDS011;27689;48.390;10.856;2022-08-19T01:52:08;7.32;;;5.47;;
42000;SDS011;27689;48.390;10.856;2022-08-19T01:54:52;9.15;;;5.85;;
42000;SDS011;27689;48.390;10.856;2022-08-19T01:57:37;6.22;;;5.63;;
42000;SDS011;27689;48.390;10.856;2022-08-19T02:00:23;8.80;;;7.90;;
42000;SDS011;27689;48.390;10.856;2022-08-19T02:03:11;10.05;;;8.65;;
42000;SDS011;27689;48.390;10.856;2022-08-19T02:05:56;10.55;;;9.48;;
42000;SDS011;27689;48.390;10.856;2022-08-19T02:08:42;10.52;;;9.52;;
42000;SDS011;27689;48.390;10.856;2022-08-19T02:11:30;12.02;;;10.88;;
42000;SDS011;27689;48.390;10.856;2022-08-19T02:14:16;14.52;;;13.05;;
42000;SDS011;27689;48.390;10.856;2022-08-19T02:17:01;13.82;;;12.43;;
42000;SDS011;27689;48.390;10.856;2022-08-19T02:19:45;15.30;;;12.32;;
42000;SDS011;27689;48.390;10.856;2022-08-19T02:22:29;14.85;;;13.38;;
42000;SDS011;27689;48.390;10.856;2022-08-19T02:25:14;16.02;;;14.52;;
42000;SDS011;27689;48.390;10.856;2022-08-19T02:27:58;17.45;;;15.70;;
42000;SDS011;27689;48.390;10.856;2022-08-19T02:30:42;16.02;;;14.32;;
42000;SDS011;27689;48.390;10.856;2022-08-19T02:33:26;15.65;;;14.10;;
42000;SDS011;27689;48.390;10.856;2022-08-19T02:36:11;16.25;;;14.65;;
42000;SDS011;27689;48.390;10.856;2022-08-19T02:38:56;15.20;;;13.70;;
42000;SDS011;27689;48.390;10.856;2022-08-19T02:41:40;14.30;;;12.90;;
42000;SDS011;27689;48.390;10.856;2022-08-19T02:44:24;17.00;;;15.23;;
42000;SDS011;27689;48.390;10.856;2022-08-19T02:47:09;19.58;;;17.40;;
42000;SDS011;27689;48.390;10.856;2022-08-19T02:52:37;17.75;;;15.88;;
42000;SDS011;27689;48.390;10.856;2022-08-19T02:55:21;18.02;;;16.30;;
42000;SDS011;27689;48.390;10.856;2022-08-19T02:58:05;21.80;;;19.45;;
42000;SDS011;27689;48.390;10.856;2022-08-19T03:00:52;22.90;;;20.70;;
42000;SDS011;27689;48.390;10.856;2022-08-19T03:03:38;20.25;;;18.25;;
42000;SDS011;27689;48.390;10.856;2022-08-19T03:06:22;23.58;;;21.15;;
42000;SDS011;27689;48.390;10.856;2022-08-19T03:09:07;21.23;;;19.13;;
42000;SDS011;27689;48.390;10.856;2022-08-19T03:11:51;24.85;;;22.35;;
42000;SDS011;27689;48.390;10.856;2022-08-19T03:14:35;24.00;;;21.60;;
42000;SDS011;27689;48.390;10.856;2022-08-19T03:17:20;23.65;;;21.15;;
42000;SDS011;27689;48.390;10.856;2022-08-19T03:20:04;24.73;;;22.00;;
42000;SDS011;27689;48.390;10.856;2022-08-19T03:22:48;25.05;;;22.55;;
42000;SDS011;27689;48.390;10.856;2022-08-19T03:25:36;25.77;;;23.17;;
42000;SDS011;27689;48.390;10.856;2022-08-19T03:28:21;22.02;;;19.70;;
42000;SDS011;27689;48.390;10.856;2022-08-19T03:31:07;23.90;;;21.40;;
42000;SDS011;27689;48.390;10.856;2022-08-19T03:33:55;23.65;;;21.35;;
42000;SDS011;27689;48.390;10.856;2022-08-19T03:36:39;23.75;;;21.40;;
42000;SDS011;27689;48.390;10.856;2022-08-19T03:39:23;26.63;;;23.85;;
42000;SDS011;27689;48.390;10.856;2022-08-19T03:42:08;28.83;;;25.92;;
42000;SDS011;27689;48.390;10.856;2022-08-19T03:44:53;30.33;;;27.13;;
42000;SDS011;27689;48.390;10.856;2022-08-19T03:47:37;26.10;;;23.30;;
42000;SDS011;27689;48.390;10.856;2022-08-19T03:50:21;29.27;;;26.27;;
42000;SDS011;27689;48.390;10.856;2022-08-19T03:53:05;27.73;;;24.85;;
42000;SDS011;27689;48.390;10.856;2022-08-19T03:55:52;29.50;;;26.50;;
42000;SDS011;27689;48.390;10.856;2022-08-19T03:58:37;30.67;;;27.38;;
42000;SDS011;27689;48.390;10.856;2022-08-19T04:01:21;27.30;;;24.50;;
42000;SDS011;27689;48.390;10.856;2022-08-19T04:04:10;29.92;;;26.70;;
42000;SDS011;27689;48.390;10.856;2022-08-19T04:06:54;32.30;;;27.90;;
42000;SDS011;27689;48.390;10.856;2022-08-19T04:09:39;25.75;;;23.08;;
42000;SDS011;27689;48.390;10.856;2022-08-19T04:12:23;30.92;;;27.77;;
42000;SDS011;27689;48.390;10.856;2022-08-19T04:15:07;25.27;;;22.73;;
42000;SDS011;27689;48.390;10.856;2022-08-19T04:17:51;28.55;;;25.55;;
42000;SDS011;27689;48.390;10.856;2022-08-19T04:20:39;29.73;;;25.80;;
42000;SDS011;27689;48.390;10.856;2022-08-19T04:23:29;31.33;;;27.83;;
42000;SDS011;27689;48.390;10.856;2022-08-19T04:26:14;28.77;;;25.77;;
42000;SDS011;27689;48.390;10.856;2022-08-19T04:29:00;29.65;;;26.60;;
42000;SDS011;27689;48.390;10.856;2022-08-19T04:31:56;30.33;;;25.23;;
42000;SDS011;27689;48.390;10.856;2022-08-19T04:34:42;29.33;;;25.13;;
42000;SDS011;27689;48.390;10.856;2022-08-19T04:37:26;27.40;;;24.63;;
42000;SDS011;27689;48.390;10.856;2022-08-19T04:40:11;28.52;;;25.63;;
42000;SDS011;27689;48.390;10.856;2022-08-19T04:43:14;27.70;;;24.73;;
42000;SDS011;27689;48.390;10.856;2022-08-19T04:46:03;25.30;;;22.42;;
42000;SDS011;27689;48.390;10.856;2022-08-19T04:48:53;25.95;;;22.60;;
42000;SDS011;27689;48.390;10.856;2022-08-19T04:51:40;26.15;;;23.35;;
42000;SDS011;27689;48.390;10.856;2022-08-19T04:54:26;26.10;;;23.35;;
42000;SDS011;27689;48.390;10.856;2022-08-19T04:57:10;26.17;;;22.27;;
42000;SDS011;27689;48.390;10.856;2022-08-19T04:59:54;26.48;;;22.85;;
42000;SDS011;27689;48.390;10.856;2022-08-19T05:02:40;23.60;;;20.80;;
42000;SDS011;27689;48.390;10.856;2022-08-19T05:05:24;23.77;;;20.70;;
42000;SDS011;27689;48.390;10.856;2022-08-19T05:08:08;22.38;;;20.08;;
42000;SDS011;27689;48.390;10.856;2022-08-19T05:10:52;23.15;;;20.75;;
42000;SDS011;27689;48.390;10.856;2022-08-19T05:13:35;23.58;;;21.08;;
42000;SDS011;27689;48.390;10.856;2022-08-19T05:16:20;28.92;;;24.98;;
42000;SDS011;27689;48.390;10.856;2022-08-19T05:19:05;26.27;;;23.33;;
42000;SDS011;27689;48.390;10.856;2022-08-19T05:22:09;23.63;;;20.83;;
42000;SDS011;27689;48.390;10.856;2022-08-19T05:25:13;24.95;;;22.35;;
42000;SDS011;27689;48.390;10.856;2022-08-19T05:28:02;23.58;;;21.17;;
42000;SDS011;27689;48.390;10.856;2022-08-19T05:30:46;30.17;;;26.63;;
42000;SDS011;27689;48.390;10.856;2022-08-19T05:33:31;26.92;;;23.85;;
42000;SDS011;27689;48.390;10.856;2022-08-19T05:36:16;24.10;;;20.77;;
42000;SDS011;27689;48.390;10.856;2022-08-19T05:38:59;22.80;;;20.40;;
42000;SDS011;27689;48.390;10.856;2022-08-19T05:41:47;29.70;;;24.10;;
42000;SDS011;27689;48.390;10.856;2022-08-19T05:44:35;26.05;;;23.05;;
42000;SDS011;27689;48.390;10.856;2022-08-19T05:47:21;23.25;;;20.35;;
42000;SDS011;27689;48.390;10.856;2022-08-19T05:50:05;23.77;;;21.08;;
42000;SDS011;27689;48.390;10.856;2022-08-19T05:52:50;24.75;;;21.73;;
42000;SDS011;27689;48.390;10.856;2022-08-19T05:55:34;27.02;;;23.00;;
42000;SDS011;27689;48.390;10.856;2022-08-19T05:58:21;24.38;;;21.77;;
42000;SDS011;27689;48.390;10.856;2022-08-19T06:01:09;25.10;;;21.58;;
42000;SDS011;27689;48.390;10.856;2022-08-19T06:03:58;23.85;;;21.02;;
42000;SDS011;27689;48.390;10.856;2022-08-19T06:06:43;23.30;;;19.55;;
42000;SDS011;27689;48.390;10.856;2022-08-19T06:09:27;21.53;;;18.83;;
42000;SDS011;27689;48.390;10.856;2022-08-19T06:12:11;30.50;;;23.52;;
42000;SDS011;27689;48.390;10.856;2022-08-19T06:14:55;24.83;;;21.65;;
42000;SDS011;27689;48.390;10.856;2022-08-19T06:17:39;28.33;;;24.92;;
42000;SDS011;27689;48.390;10.856;2022-08-19T06:20:25;25.38;;;21.38;;
42000;SDS011;27689;48.390;10.856;2022-08-19T06:23:09;26.95;;;23.77;;
42000;SDS011;27689;48.390;10.856;2022-08-19T06:25:53;28.20;;;25.17;;
42000;SDS011;27689;48.390;10.856;2022-08-19T06:28:37;31.98;;;25.80;;
42000;SDS011;27689;48.390;10.856;2022-08-19T06:31:29;26.55;;;22.77;;
42000;SDS011;27689;48.390;10.856;2022-08-19T06:34:15;27.30;;;24.25;;
42000;SDS011;27689;48.390;10.856;2022-08-19T06:37:00;32.60;;;26.33;;
42000;SDS011;27689;48.390;10.856;2022-08-19T06:39:45;26.88;;;23.92;;
42000;SDS011;27689;48.390;10.856;2022-08-19T06:42:29;27.65;;;23.90;;
42000;SDS011;27689;48.390;10.856;2022-08-19T06:45:13;31.10;;;25.73;;
42000;SDS011;27689;48.390;10.856;2022-08-19T06:47:58;32.35;;;26.55;;
42000;SDS011;27689;48.390;10.856;2022-08-19T06:50:42;30.20;;;25.38;;
42000;SDS011;27689;48.390;10.856;2022-08-19T06:53:26;30.55;;;25.40;;
42000;SDS011;27689;48.390;10.856;2022-08-19T06:58:56;33.90;;;28.83;;
42000;SDS011;27689;48.390;10.856;2022-08-19T07:01:43;26.48;;;23.38;;
42000;SDS011;27689;48.390;10.856;2022-08-19T07:04:32;30.65;;;25.75;;
42000;SDS011;27689;48.390;10.856;2022-08-19T07:07:18;29.35;;;25.15;;
42000;SDS011;27689;48.390;10.856;2022-08-19T07:10:04;33.95;;;27.55;;
42000;SDS011;27689;48.390;10.856;2022-08-19T07:15:35;31.88;;;26.85;;
42000;SDS011;27689;48.390;10.856;2022-08-19T07:18:20;38.35;;;31.27;;
42000;SDS011;27689;48.390;10.856;2022-08-19T07:21:06;34.77;;;28.13;;
42000;SDS011;27689;48.390;10.856;2022-08-19T07:23:52;33.97;;;27.75;;
42000;SDS011;27689;48.390;10.856;2022-08-19T07:26:40;33.30;;;28.08;;
42000;SDS011;27689;48.390;10.856;2022-08-19T07:29:26;36.67;;;31.83;;
42000;SDS011;27689;48.390;10.856;2022-08-19T07:32:12;40.53;;;31.55;;
42000;SDS011;27689;48.390;10.856;2022-08-19T07:34:56;38.47;;;30.27;;
42000;SDS011;27689;48.390;10.856;2022-08-19T07:37:40;38.15;;;32.20;;
42000;SDS011;27689;48.390;10.856;2022-08-19T07:40:27;38.10;;;30.50;;
42000;SDS011;27689;48.390;10.856;2022-08-19T07:43:12;43.63;;;31.67;;
42000;SDS011;27689;48.390;10.856;2022-08-19T07:45:56;46.10;;;32.75;;
42000;SDS011;27689;48.390;10.856;2022-08-19T07:48:41;45.53;;;34.72;;
42000;SDS011;27689;48.390;10.856;2022-08-19T07:51:28;39.17;;;33.10;;
42000;SDS011;27689;48.390;10.856;2022-08-19T07:54:12;42.67;;;34.55;;
42000;SDS011;27689;48.390;10.856;2022-08-19T07:56:56;46.97;;;34.97;;
42000;SDS011;27689;48.390;10.856;2022-08-19T07:59:41;43.90;;;35.55;;
42000;SDS011;27689;48.390;10.856;2022-08-19T08:02:25;48.53;;;36.70;;
42000;SDS011;27689;48.390;10.856;2022-08-19T08:05:09;46.58;;;37.28;;
42000;SDS011;27689;48.390;10.856;2022-08-19T08:08:13;47.38;;;37.75;;
42000;SDS011;27689;48.390;10.856;2022-08-19T08:11:06;47.30;;;37.72;;
42000;SDS011;27689;48.390;10.856;2022-08-19T08:13:51;50.60;;;39.53;;
42000;SDS011;27689;48.390;10.856;2022-08-19T08:16:36;49.25;;;37.20;;
42000;SDS011;27689;48.390;10.856;2022-08-19T08:19:21;48.13;;;38.05;;
42000;SDS011;27689;48.390;10.856;2022-08-19T08:22:07;49.83;;;38.78;;
42000;SDS011;27689;48.390;10.856;2022-08-19T08:27:58;47.38;;;38.17;;
42000;SDS011;27689;48.390;10.856;2022-08-19T08:30:44;45.40;;;35.63;;
42000;SDS011;27689;48.390;10.856;2022-08-19T08:33:31;49.78;;;38.55;;
42000;SDS011;27689;48.390;10.856;2022-08-19T08:36:15;45.90;;;36.67;;
42000;SDS011;27689;48.390;10.856;2022-08-19T08:39:00;47.30;;;37.75;;
42000;SDS011;27689;48.390;10.856;2022-08-19T08:47:50;49.15;;;37.08;;
42000;SDS011;27689;48.390;10.856;2022-08-19T08:50:39;44.85;;;36.17;;
42000;SDS011;27689;48.390;10.856;2022-08-19T08:53:28;48.63;;;36.92;;
42000;SDS011;27689;48.390;10.856;2022-08-19T08:56:14;51.47;;;38.20;;
42000;SDS011;27689;48.390;10.856;2022-08-19T08:59:01;47.38;;;37.08;;
42000;SDS011;27689;48.390;10.856;2022-08-19T09:01:51;47.53;;;36.38;;
42000;SDS011;27689;48.390;10.856;2022-08-19T09:04:35;52.17;;;37.80;;
42000;SDS011;27689;48.390;10.856;2022-08-19T09:10:22;48.00;;;39.38;;
42000;SDS011;27689;48.390;10.856;2022-08-19T09:16:10;48.15;;;36.75;;
42000;SDS011;27689;48.390;10.856;2022-08-19T09:18:58;47.45;;;35.65;;
42000;SDS011;27689;48.390;10.856;2022-08-19T09:21:45;52.85;;;38.85;;
42000;SDS011;27689;48.390;10.856;2022-08-19T09:24:29;53.50;;;38.70;;
42000;SDS011;27689;48.390;10.856;2022-08-19T09:27:13;48.78;;;38.35;;
42000;SDS011;27689;48.390;10.856;2022-08-19T09:29:57;53.17;;;40.25;;
42000;SDS011;27689;48.390;10.856;2022-08-19T09:32:41;52.85;;;38.88;;
42000;SDS011;27689;48.390;10.856;2022-08-19T09:35:26;51.22;;;40.53;;
42000;SDS011;27689;48.390;10.856;2022-08-19T09:38:15;54.92;;;38.85;;
42000;SDS011;27689;48.390;10.856;2022-08-19T09:41:03;52.58;;;40.92;;
42000;SDS011;27689;48.390;10.856;2022-08-19T09:43:49;51.45;;;39.17;;
42000;SDS011;27689;48.390;10.856;2022-08-19T09:46:35;54.70;;;40.67;;
42000;SDS011;27689;48.390;10.856;2022-08-19T09:49:19;51.58;;;40.10;;
42000;SDS011;27689;48.390;10.856;2022-08-19T09:52:06;59.70;;;41.80;;
42000;SDS011;27689;48.390;10.856;2022-08-19T09:54:52;52.40;;;39.53;;
42000;SDS011;27689;48.390;10.856;2022-08-19T09:57:37;45.95;;;34.78;;
42000;SDS011;27689;48.390;10.856;2022-08-19T10:00:21;47.85;;;36.97;;
42000;SDS011;27689;48.390;10.856;2022-08-19T10:03:05;53.00;;;40.47;;
42000;SDS011;27689;48.390;10.856;2022-08-19T10:05:49;51.58;;;38.20;;
42000;SDS011;27689;48.390;10.856;2022-08-19T10:08:35;51.60;;;40.03;;
42000;SDS011;27689;48.390;10.856;2022-08-19T10:11:21;50.67;;;38.22;;
42000;SDS011;27689;48.390;10.856;2022-08-19T10:14:05;49.40;;;37.17;;
42000;SDS011;27689;48.390;10.856;2022-08-19T10:16:49;48.13;;;37.50;;
42000;SDS011;27689;48.390;10.856;2022-08-19T10:19:35;46.53;;;36.72;;
42000;SDS011;27689;48.390;10.856;2022-08-19T10:22:19;47.17;;;38.20;;
42000;SDS011;27689;48.390;10.856;2022-08-19T10:25:04;42.78;;;33.80;;
42000;SDS011;27689;48.390;10.856;2022-08-19T10:27:49;50.75;;;36.90;;
42000;SDS011;27689;48.390;10.856;2022-08-19T10:30:33;45.63;;;36.17;;
42000;SDS011;27689;48.390;10.856;2022-08-19T10:33:19;44.78;;;35.42;;
42000;SDS011;27689;48.390;10.856;2022-08-19T10:36:04;46.08;;;36.25;;
42000;SDS011;27689;48.390;10.856;2022-08-19T10:38:54;41.28;;;33.38;;
42000;SDS011;27689;48.390;10.856;2022-08-19T10:41:42;41.67;;;32.25;;
42000;SDS011;27689;48.390;10.856;2022-08-19T10:47:13;36.15;;;29.27;;
42000;SDS011;27689;48.390;10.856;2022-08-19T10:49:58;41.28;;;32.05;;
42000;SDS011;27689;48.390;10.856;2022-08-19T10:53:05;38.45;;;31.75;;
42000;SDS011;27689;48.390;10.856;2022-08-19T10:55:54;38.67;;;30.67;;
42000;SDS011;27689;48.390;10.856;2022-08-19T10:58:56;38.08;;;28.83;;
42000;SDS011;27689;48.390;10.856;2022-08-19T11:04:27;36.88;;;29.42;;
42000;SDS011;27689;48.390;10.856;2022-08-19T11:07:11;42.47;;;32.42;;
42000;SDS011;27689;48.390;10.856;2022-08-19T11:09:55;45.22;;;32.88;;
42000;SDS011;27689;48.390;10.856;2022-08-19T11:12:40;43.20;;;29.95;;
42000;SDS011;27689;48.390;10.856;2022-08-19T11:18:08;30.98;;;25.48;;
42000;SDS011;27689;48.390;10.856;2022-08-19T11:20:52;34.20;;;25.95;;
42000;SDS011;27689;48.390;10.856;2022-08-19T11:23:36;30.63;;;25.65;;
42000;SDS011;27689;48.390;10.856;2022-08-19T11:26:21;28.58;;;22.55;;
42000;SDS011;27689;48.390;10.856;2022-08-19T11:29:06;18.40;;;14.63;;
42000;SDS011;27689;48.390;10.856;2022-08-19T11:31:54;17.92;;;13.70;;
42000;SDS011;27689;48.390;10.856;2022-08-19T11:34:39;16.23;;;14.23;;
42000;SDS011;27689;48.390;10.856;2022-08-19T11:37:23;10.57;;;9.32;;
42000;SDS011;27689;48.390;10.856;2022-08-19T11:40:07;9.80;;;8.38;;
42000;SDS011;27689;48.390;10.856;2022-08-19T11:45:39;9.90;;;6.50;;
42000;SDS011;27689;48.390;10.856;2022-08-19T11:48:23;11.90;;;9.90;;
42000;SDS011;27689;48.390;10.856;2022-08-19T11:53:57;15.32;;;11.85;;
42000;SDS011;27689;48.390;10.856;2022-08-19T11:56:43;13.98;;;12.52;;
42000;SDS011;27689;48.390;10.856;2022-08-19T11:59:28;17.38;;;13.95;;
42000;SDS011;27689;48.390;10.856;2022-08-19T12:02:12;16.02;;;13.68;;
42000;SDS011;27689;48.390;10.856;2022-08-19T12:04:58;18.35;;;15.70;;
42000;SDS011;27689;48.390;10.856;2022-08-19T12:07:45;20.38;;;16.95;;
42000;SDS011;27689;48.390;10.856;2022-08-19T12:10:29;21.42;;;18.02;;
42000;SDS011;27689;48.390;10.856;2022-08-19T12:13:14;21.90;;;19.35;;
42000;SDS011;27689;48.390;10.856;2022-08-19T12:16:13;50.33;;;44.78;;
42000;SDS011;27689;48.390;10.856;2022-08-19T12:18:59;76.20;;;64.07;;
42000;SDS011;27689;48.390;10.856;2022-08-19T12:21:47;26.02;;;22.15;;
42000;SDS011;27689;48.390;10.856;2022-08-19T12:24:32;16.75;;;14.75;;
42000;SDS011;27689;48.390;10.856;2022-08-19T12:30:01;12.63;;;11.23;;
42000;SDS011;27689;48.390;10.856;2022-08-19T12:32:46;13.77;;;12.15;;
42000;SDS011;27689;48.390;10.856;2022-08-19T12:35:30;11.30;;;10.10;;
42000;SDS011;27689;48.390;10.856;2022-08-19T12:38:14;11.57;;;10.35;;
42000;SDS011;27689;48.390;10.856;2022-08-19T12:40:58;10.65;;;9.55;;
42000;SDS011;27689;48.390;10.856;2022-08-19T12:43:42;9.13;;;8.18;;
42000;SDS011;27689;48.390;10.856;2022-08-19T12:46:26;12.32;;;9.23;;
42000;SDS011;27689;48.390;10.856;2022-08-19T12:49:10;8.52;;;7.63;;
42000;SDS011;27689;48.390;10.856;2022-08-19T12:51:54;8.88;;;7.97;;
42000;SDS011;27689;48.390;10.856;2022-08-19T12:54:38;8.70;;;7.53;;
42000;SDS011;27689;48.390;10.856;2022-08-19T12:57:24;9.40;;;8.45;;
42000;SDS011;27689;48.390;10.856;2022-08-19T13:00:15;10.60;;;8.13;;
42000;SDS011;27689;48.390;10.856;2022-08-19T13:03:01;8.90;;;8.00;;
42000;SDS011;27689;48.390;10.856;2022-08-19T13:05:45;9.83;;;8.83;;
42000;SDS011;27689;48.390;10.856;2022-08-19T13:08:29;9.52;;;8.07;;
42000;SDS011;27689;48.390;10.856;2022-08-19T13:11:17;9.15;;;8.27;;
42000;SDS011;27689;48.390;10.856;2022-08-19T13:14:02;9.93;;;8.93;;
42000;SDS011;27689;48.390;10.856;2022-08-19T13:16:47;9.13;;;8.23;;
42000;SDS011;27689;48.390;10.856;2022-08-19T13:19:32;10.05;;;9.07;;
42000;SDS011;27689;48.390;10.856;2022-08-19T13:22:16;9.50;;;8.20;;
42000;SDS011;27689;48.390;10.856;2022-08-19T13:25:00;10.18;;;9.15;;
42000;SDS011;27689;48.390;10.856;2022-08-19T13:27:45;9.53;;;8.67;;
42000;SDS011;27689;48.390;10.856;2022-08-19T13:30:29;10.45;;;9.32;;
42000;SDS011;27689;48.390;10.856;2022-08-19T13:33:32;10.90;;;9.90;;
42000;SDS011;27689;48.390;10.856;2022-08-19T13:39:01;13.63;;;11.02;;
42000;SDS011;27689;48.390;10.856;2022-08-19T13:41:45;12.60;;;11.40;;
42000;SDS011;27689;48.390;10.856;2022-08-19T13:44:33;11.15;;;10.05;;
42000;SDS011;27689;48.390;10.856;2022-08-19T13:47:17;13.70;;;12.30;;
42000;SDS011;27689;48.390;10.856;2022-08-19T13:50:03;15.65;;;13.93;;
42000;SDS011;27689;48.390;10.856;2022-08-19T13:52:48;14.88;;;13.35;;
42000;SDS011;27689;48.390;10.856;2022-08-19T13:55:32;18.08;;;16.10;;
42000;SDS011;27689;48.390;10.856;2022-08-19T13:58:16;17.52;;;15.70;;
42000;SDS011;27689;48.390;10.856;2022-08-19T14:01:00;17.77;;;15.98;;
42000;SDS011;27689;48.390;10.856;2022-08-19T14:03:44;18.10;;;16.25;;
42000;SDS011;27689;48.390;10.856;2022-08-19T14:06:28;18.73;;;16.55;;
42000;SDS011;27689;48.390;10.856;2022-08-19T14:09:12;19.90;;;17.55;;
42000;SDS011;27689;48.390;10.856;2022-08-19T14:11:56;20.73;;;18.63;;
42000;SDS011;27689;48.390;10.856;2022-08-19T14:14:40;20.10;;;17.98;;
42000;SDS011;27689;48.390;10.856;2022-08-19T14:17:24;18.73;;;16.83;;
42000;SDS011;27689;48.390;10.856;2022-08-19T14:20:09;20.30;;;18.23;;
42000;SDS011;27689;48.390;10.856;2022-08-19T14:22:53;18.17;;;16.38;;
42000;SDS011;27689;48.390;10.856;2022-08-19T14:25:38;21.00;;;18.80;;
42000;SDS011;27689;48.390;10.856;2022-08-19T14:28:22;22.30;;;19.97;;
42000;SDS011;27689;48.390;10.856;2022-08-19T14:31:06;19.58;;;17.58;;
42000;SDS011;27689;48.390;10.856;2022-08-19T14:33:50;19.00;;;17.00;;
42000;SDS011;27689;48.390;10.856;2022-08-19T14:36:34;20.40;;;18.30;;
42000;SDS011;27689;48.390;10.856;2022-08-19T14:39:18;19.73;;;17.83;;
42000;SDS011;27689;48.390;10.856;2022-08-19T14:42:06;18.42;;;16.52;;
42000;SDS011;27689;48.390;10.856;2022-08-19T14:44:52;19.80;;;17.60;;
42000;SDS011;27689;48.390;10.856;2022-08-19T14:47:38;18.77;;;17.00;;
42000;SDS011;27689;48.390;10.856;2022-08-19T14:50:22;18.88;;;17.02;;
42000;SDS011;27689;48.390;10.856;2022-08-19T14:53:07;18.15;;;15.95;;
42000;SDS011;27689;48.390;10.856;2022-08-19T14:58:35;19.02;;;16.98;;
42000;SDS011;27689;48.390;10.856;2022-08-19T15:01:21;16.02;;;14.43;;
42000;SDS011;27689;48.390;10.856;2022-08-19T15:04:06;18.23;;;15.90;;
42000;SDS011;27689;48.390;10.856;2022-08-19T15:06:50;16.50;;;14.80;;
42000;SDS011;27689;48.390;10.856;2022-08-19T15:09:34;16.38;;;14.55;;
42000;SDS011;27689;48.390;10.856;2022-08-19T15:12:18;14.13;;;12.73;;
42000;SDS011;27689;48.390;10.856;2022-08-19T15:15:02;13.60;;;12.30;;
42000;SDS011;27689;48.390;10.856;2022-08-19T15:17:46;12.73;;;11.52;;
42000;SDS011;27689;48.390;10.856;2022-08-19T15:20:31;13.70;;;12.35;;
42000;SDS011;27689;48.390;10.856;2022-08-19T15:23:15;12.88;;;11.57;;
42000;SDS011;27689;48.390;10.856;2022-08-19T15:26:00;11.30;;;10.20;;
42000;SDS011;27689;48.390;10.856;2022-08-19T15:28:44;12.18;;;10.98;;
42000;SDS011;27689;48.390;10.856;2022-08-19T15:34:19;11.30;;;10.20;;
42000;SDS011;27689;48.390;10.856;2022-08-19T15:37:03;11.48;;;9.20;;
42000;SDS011;27689;48.390;10.856;2022-08-19T15:39:48;9.95;;;8.95;;
42000;SDS011;27689;48.390;10.856;2022-08-19T15:42:34;10.50;;;9.40;;
42000;SDS011;27689;48.390;10.856;2022-08-19T15:45:20;9.77;;;8.75;;
42000;SDS011;27689;48.390;10.856;2022-08-19T15:48:04;8.93;;;8.02;;
42000;SDS011;27689;48.390;10.856;2022-08-19T15:50:48;7.93;;;7.13;;
42000;SDS011;27689;48.390;10.856;2022-08-19T15:53:32;9.55;;;8.65;;
42000;SDS011;27689;48.390;10.856;2022-08-19T15:56:16;8.80;;;7.90;;
42000;SDS011;27689;48.390;10.856;2022-08-19T15:59:01;9.15;;;8.32;;
42000;SDS011;27689;48.390;10.856;2022-08-19T16:02:03;9.15;;;8.35;;
42000;SDS011;27689;48.390;10.856;2022-08-19T16:05:07;8.85;;;8.05;;
42000;SDS011;27689;48.390;10.856;2022-08-19T16:08:13;8.32;;;7.53;;
42000;SDS011;27689;48.390;10.856;2022-08-19T16:10:58;9.60;;;8.63;;
42000;SDS011;27689;48.390;10.856;2022-08-19T16:13:42;9.18;;;8.27;;
42000;SDS011;27689;48.390;10.856;2022-08-19T16:16:28;9.00;;;8.20;;
42000;SDS011;27689;48.390;10.856;2022-08-19T16:19:15;9.20;;;8.13;;
42000;SDS011;27689;48.390;10.856;2022-08-19T16:22:02;8.98;;;8.00;;
42000;SDS011;27689;48.390;10.856;2022-08-19T16:24:48;9.77;;;8.70;;
42000;SDS011;27689;48.390;10.856;2022-08-19T16:27:32;10.48;;;8.23;;
42000;SDS011;27689;48.390;10.856;2022-08-19T16:30:16;9.68;;;8.73;;
42000;SDS011;27689;48.390;10.856;2022-08-19T16:33:00;15.30;;;9.20;;
42000;SDS011;27689;48.390;10.856;2022-08-19T16:35:44;9.60;;;8.70;;
42000;SDS011;27689;48.390;10.856;2022-08-19T16:38:29;9.52;;;8.60;;
42000;SDS011;27689;48.390;10.856;2022-08-19T16:41:14;11.00;;;9.88;;
42000;SDS011;27689;48.390;10.856;2022-08-19T16:43:58;11.32;;;10.15;;
42000;SDS011;27689;48.390;10.856;2022-08-19T16:46:42;11.38;;;10.27;;
42000;SDS011;27689;48.390;10.856;2022-08-19T16:49:26;13.25;;;11.95;;
42000;SDS011;27689;48.390;10.856;2022-08-19T16:52:11;12.35;;;11.13;;